createdAt,value
2019-03-06T00:01:28.734Z,95444.00
2019-03-06T00:06:58.003Z,95447.00
2019-03-06T00:12:27.274Z,95443.00
2019-03-06T00:17:56.606Z,95436.00
2019-03-06T00:23:26.868Z,95434.00
2019-03-06T00:28:57.329Z,95435.00
2019-03-06T00:34:26.683Z,95431.00
2019-03-06T00:39:57.738Z,95411.00
2019-03-06T00:45:28.009Z,95404.00
2019-03-06T00:50:57.282Z,95409.00
2019-03-06T00:56:26.558Z,95398.00
2019-03-06T01:01:56.015Z,95404.00
2019-03-06T01:07:25.265Z,95391.00
2019-03-06T01:12:54.824Z,95387.00
2019-03-06T01:18:24.554Z,95384.00
2019-03-06T01:23:53.824Z,95383.00
2019-03-06T01:29:23.091Z,95377.00
2019-03-06T01:34:59.450Z,95376.00
2019-03-06T01:40:48.706Z,95365.00
2019-03-06T01:46:18.121Z,95356.00
2019-03-06T01:51:47.408Z,95346.00
2019-03-06T01:57:16.680Z,95345.00
2019-03-06T02:02:46.113Z,95342.00
2019-03-06T02:08:17.231Z,95335.00
2019-03-06T02:13:46.501Z,95338.00
2019-03-06T02:19:16.052Z,95331.00
2019-03-06T02:24:45.596Z,95336.00
2019-03-06T02:30:27.222Z,95329.00
2019-03-06T02:35:56.477Z,95324.00
2019-03-06T02:41:25.748Z,95318.00
2019-03-06T02:46:55.000Z,95302.00
2019-03-06T02:52:29.469Z,95297.00
2019-03-06T02:58:03.285Z,95305.00
2019-03-06T03:03:34.193Z,95298.00
2019-03-06T03:09:04.616Z,95293.00
2019-03-06T03:14:36.576Z,95287.00
2019-03-06T03:20:08.687Z,95279.00
2019-03-06T03:25:39.873Z,95264.00
2019-03-06T03:31:09.160Z,95263.00
2019-03-06T03:36:38.461Z,95253.00
2019-03-06T03:42:07.865Z,95261.00
2019-03-06T03:47:37.130Z,95251.00
2019-03-06T03:53:08.378Z,95237.00
2019-03-06T03:58:37.651Z,95241.00
2019-03-06T04:04:06.915Z,95233.00
2019-03-06T04:09:36.172Z,95232.00
2019-03-06T04:15:11.680Z,95234.00
2019-03-06T04:20:41.213Z,95233.00
2019-03-06T04:26:10.468Z,95237.00
2019-03-06T04:31:39.736Z,95232.00
2019-03-06T04:37:09.003Z,95235.00
2019-03-06T04:42:38.282Z,95243.00
2019-03-06T04:48:07.553Z,95237.00
2019-03-06T04:53:36.834Z,95252.00
2019-03-06T04:59:06.275Z,95223.00
2019-03-06T05:04:35.546Z,95223.00
2019-03-06T05:10:08.324Z,95219.00
2019-03-06T05:15:37.593Z,95237.00
2019-03-06T05:21:06.860Z,95224.00
2019-03-06T05:26:36.137Z,95220.00
2019-03-06T05:32:33.867Z,95224.00
2019-03-06T05:38:13.308Z,95218.00
2019-03-06T05:43:44.580Z,95217.00
2019-03-06T05:49:16.512Z,95205.00
2019-03-06T05:54:45.773Z,95201.00
2019-03-06T06:00:19.136Z,95201.00
2019-03-06T06:05:48.406Z,95197.00
2019-03-06T06:11:17.938Z,95196.00
2019-03-06T06:16:47.208Z,95190.00
2019-03-06T06:22:31.066Z,95172.00
2019-03-06T06:28:00.403Z,95157.00
2019-03-06T06:33:29.667Z,95153.00
2019-03-06T06:38:58.961Z,95158.00
2019-03-06T06:44:28.254Z,95135.00
2019-03-06T06:49:57.514Z,95133.00
2019-03-06T06:55:34.409Z,95136.00
2019-03-06T07:01:21.843Z,95137.00
2019-03-06T07:07:01.925Z,95140.00
2019-03-06T07:12:49.049Z,95117.00
2019-03-06T07:18:25.640Z,95126.00
2019-03-06T07:24:08.496Z,95120.00
2019-03-06T07:29:42.099Z,95117.00
2019-03-06T07:35:59.330Z,95122.00
2019-03-06T07:41:30.228Z,95128.00
2019-03-06T07:47:04.411Z,95122.00
2019-03-06T07:52:41.258Z,95120.00
2019-03-06T07:58:51.818Z,95120.00
2019-03-06T08:04:21.086Z,95113.00
2019-03-06T08:09:50.861Z,95109.00
2019-03-06T08:15:21.768Z,95103.00
2019-03-06T08:20:52.674Z,95096.00
2019-03-06T08:26:21.941Z,95084.00
2019-03-06T08:31:52.476Z,95086.00
2019-03-06T08:37:21.760Z,95075.00
2019-03-06T08:42:51.015Z,95075.00
2019-03-06T08:48:37.976Z,95061.00
2019-03-06T08:54:11.533Z,95043.00
2019-03-06T08:59:58.566Z,95046.00
2019-03-06T09:05:45.854Z,95055.00
2019-03-06T09:11:19.516Z,95043.00
2019-03-06T09:17:02.699Z,95055.00
2019-03-06T09:22:33.627Z,95049.00
2019-03-06T09:28:10.460Z,95039.00
2019-03-06T09:33:43.886Z,95026.00
2019-03-06T09:39:18.229Z,95010.00
2019-03-06T09:44:49.327Z,94997.00
2019-03-06T09:50:26.040Z,94986.00
2019-03-06T09:56:09.960Z,94990.00
2019-03-06T10:01:40.898Z,94982.00
2019-03-06T10:07:23.897Z,94977.00
2019-03-06T10:13:07.078Z,94995.00
2019-03-06T10:18:38.001Z,94978.00
2019-03-06T10:24:07.284Z,94974.00
2019-03-06T10:29:36.544Z,94963.00
2019-03-06T10:35:07.326Z,94962.00
2019-03-06T10:40:38.229Z,94948.00
2019-03-06T10:46:07.521Z,94948.00
2019-03-06T10:51:36.868Z,94940.00
2019-03-06T10:57:06.277Z,94928.00
2019-03-06T11:02:35.874Z,94927.00
2019-03-06T11:08:06.478Z,94936.00
2019-03-06T11:13:36.126Z,94926.00
2019-03-06T11:19:06.188Z,94920.00
2019-03-06T11:24:35.889Z,94910.00
2019-03-06T11:30:18.623Z,94895.00
2019-03-06T11:35:50.263Z,94885.00
2019-03-06T11:41:26.673Z,94882.00
2019-03-06T11:46:57.440Z,94868.00
2019-03-06T11:52:26.801Z,94876.00
2019-03-06T11:58:04.437Z,94868.00
2019-03-06T12:03:33.727Z,94859.00
2019-03-06T12:09:04.894Z,94847.00
2019-03-06T12:14:35.325Z,94840.00
2019-03-06T12:20:08.542Z,94830.00
2019-03-06T12:25:38.099Z,94830.00
2019-03-06T12:31:09.396Z,94824.00
2019-03-06T12:36:39.189Z,94810.00
2019-03-06T12:42:14.250Z,94806.00
2019-03-06T12:47:42.203Z,94796.00
2019-03-06T12:53:12.881Z,94782.00
2019-03-06T12:58:42.223Z,94782.00
2019-03-06T13:04:11.504Z,94763.00
2019-03-06T13:09:40.775Z,94744.00
2019-03-06T13:15:17.480Z,94733.00
2019-03-06T13:20:46.757Z,94718.00
2019-03-06T13:26:16.059Z,94716.00
2019-03-06T13:31:45.413Z,94695.00
2019-03-06T13:37:14.698Z,94693.00
2019-03-06T13:42:43.970Z,94676.00
2019-03-06T13:48:13.553Z,94667.00
2019-03-06T13:53:42.799Z,94652.00
2019-03-06T13:59:12.155Z,94643.00
2019-03-06T14:04:41.622Z,94645.00
2019-03-06T14:10:28.266Z,94640.00
2019-03-06T14:16:01.006Z,94639.00
2019-03-06T14:21:30.346Z,94629.00
2019-03-06T14:26:59.797Z,94623.00
2019-03-06T14:32:29.114Z,94607.00
2019-03-06T14:37:58.537Z,94607.00
2019-03-06T14:43:27.883Z,94602.00
2019-03-06T14:49:03.249Z,94598.00
2019-03-06T14:54:35.618Z,94588.00
2019-03-06T15:00:18.031Z,94586.00
2019-03-06T15:05:47.581Z,94587.00
2019-03-06T15:11:16.890Z,94576.00
2019-03-06T15:16:46.166Z,94581.00
2019-03-06T15:22:15.462Z,94570.00
2019-03-06T15:27:59.947Z,94561.00
2019-03-06T15:33:29.411Z,94550.00
2019-03-06T15:38:58.705Z,94532.00
2019-03-06T15:44:28.051Z,94520.00
2019-03-06T15:49:57.414Z,94520.00
2019-03-06T15:55:28.780Z,94517.00
2019-03-06T16:00:58.120Z,94510.00
2019-03-06T16:06:28.747Z,94489.00
2019-03-06T16:11:58.042Z,94477.00
2019-03-06T16:17:27.396Z,94486.00
2019-03-06T16:22:57.200Z,94479.00
2019-03-06T16:28:29.888Z,94476.00
2019-03-06T16:33:59.215Z,94487.00
2019-03-06T16:39:29.419Z,94483.00
2019-03-06T16:44:58.756Z,94469.00
2019-03-06T16:50:28.268Z,94466.00
2019-03-06T16:55:57.543Z,94468.00
2019-03-06T17:01:26.895Z,94462.00
2019-03-06T17:06:56.375Z,94471.00
2019-03-06T17:12:25.693Z,94467.00
2019-03-06T17:17:55.656Z,94451.00
2019-03-06T17:23:26.727Z,94459.00
2019-03-06T17:28:55.966Z,94455.00
2019-03-06T17:34:26.777Z,94460.00
2019-03-06T17:39:56.211Z,94463.00
2019-03-06T17:45:28.036Z,94465.00
2019-03-06T17:51:00.875Z,94474.00
2019-03-06T17:56:29.356Z,94463.00
2019-03-06T18:02:01.199Z,94472.00
2019-03-06T18:07:30.473Z,94459.00
2019-03-06T18:12:59.817Z,94441.00
2019-03-06T18:18:29.337Z,94445.00
2019-03-06T18:24:04.316Z,94440.00
2019-03-06T18:29:34.541Z,94428.00
2019-03-06T18:35:07.120Z,94424.00
2019-03-06T18:40:36.694Z,94427.00
2019-03-06T18:46:07.137Z,94401.00
2019-03-06T18:51:36.526Z,94398.00
2019-03-06T18:57:05.853Z,94406.00
2019-03-06T19:02:36.437Z,94388.00
2019-03-06T19:08:06.979Z,94381.00
2019-03-06T19:13:36.432Z,94380.00
2019-03-06T19:19:09.804Z,94378.00
2019-03-06T19:24:40.091Z,94371.00
2019-03-06T19:30:24.813Z,94365.00
2019-03-06T19:35:55.054Z,94355.00
2019-03-06T19:41:24.378Z,94335.00
2019-03-06T19:46:53.827Z,94336.00
2019-03-06T19:52:23.100Z,94319.00
2019-03-06T19:58:00.948Z,94313.00
2019-03-06T20:03:32.314Z,94313.00
2019-03-06T20:09:01.679Z,94319.00
2019-03-06T20:14:31.164Z,94313.00
2019-03-06T20:26:02.478Z,94312.00
2019-03-06T20:31:32.018Z,94306.00
2019-03-06T20:37:01.665Z,94293.00
2019-03-06T20:42:30.936Z,94296.00
2019-03-06T20:48:00.665Z,94293.00
2019-03-06T20:53:30.022Z,94286.00
2019-03-06T20:58:59.324Z,94265.00
2019-03-06T21:04:30.504Z,94272.00
2019-03-06T21:09:59.960Z,94250.00
2019-03-06T21:15:29.207Z,94276.00
2019-03-06T21:21:00.013Z,94260.00
2019-03-06T21:26:32.169Z,94249.00
2019-03-06T21:32:03.658Z,94259.00
2019-03-06T21:37:32.929Z,94266.00
2019-03-06T21:43:03.248Z,94263.00
2019-03-06T21:48:32.499Z,94268.00
2019-03-06T21:54:01.784Z,94266.00
2019-03-06T21:59:31.052Z,94263.00
2019-03-06T22:05:00.319Z,94270.00
2019-03-06T22:10:29.597Z,94257.00
2019-03-06T22:16:01.580Z,94254.00
2019-03-06T22:21:30.870Z,94257.00
2019-03-06T22:27:00.252Z,94248.00
2019-03-06T22:32:31.507Z,94247.00
2019-03-06T22:38:01.716Z,94241.00
2019-03-06T22:43:31.996Z,94233.00
2019-03-06T22:49:01.651Z,94227.00
2019-03-06T22:54:31.030Z,94214.00
2019-03-06T23:00:00.399Z,94196.00
2019-03-06T23:05:35.700Z,94187.00
2019-03-06T23:11:08.351Z,94176.00
2019-03-06T23:16:38.647Z,94179.00
2019-03-06T23:22:08.236Z,94156.00
2019-03-06T23:27:39.399Z,94161.00
2019-03-06T23:33:08.664Z,94167.00
2019-03-06T23:38:37.966Z,94163.00
2019-03-06T23:44:13.114Z,94158.00
2019-03-06T23:49:48.213Z,94161.00
2019-03-06T23:55:17.613Z,94151.00
